createdAt,value
2019-06-10T06:26:48.086Z,4.40
2019-06-10T06:27:47.985Z,4.40
2019-06-10T06:28:47.942Z,4.30
2019-06-10T06:29:47.923Z,4.60
2019-06-10T06:30:47.854Z,4.50
2019-06-10T06:31:47.819Z,4.60
2019-06-10T06:32:47.840Z,4.80
2019-06-10T06:33:47.729Z,4.60
2019-06-10T06:34:47.683Z,4.20
2019-06-10T06:35:47.638Z,4.50
2019-06-10T06:36:47.597Z,4.40
2019-06-10T06:37:47.561Z,5.20
2019-06-10T06:38:47.573Z,4.70
2019-06-10T06:39:47.470Z,4.90
2019-06-10T06:40:47.428Z,4.70
2019-06-10T06:41:47.392Z,4.70
2019-06-10T06:42:47.344Z,4.60
2019-06-10T06:43:47.304Z,4.40
2019-06-10T06:44:47.288Z,4.30
2019-06-10T06:45:47.222Z,3.90
2019-06-10T06:46:47.179Z,4.40
2019-06-10T06:47:47.135Z,4.50
2019-06-10T06:48:47.143Z,4.00
2019-06-10T06:49:47.051Z,4.20
2019-06-10T06:51:01.964Z,4.10
2019-06-10T06:51:54.621Z,4.20
2019-06-10T06:53:18.887Z,4.00
2019-06-10T06:53:51.907Z,4.10
2019-06-10T06:54:46.872Z,3.70
2019-06-10T06:55:46.802Z,3.80
2019-06-10T06:56:46.757Z,3.50
2019-06-10T06:57:46.729Z,3.80
2019-06-10T06:58:46.674Z,4.00
2019-06-10T06:59:46.630Z,4.10
2019-06-10T07:01:00.113Z,4.30
2019-06-10T07:01:46.547Z,4.00
2019-06-10T07:02:46.506Z,4.30
2019-06-10T07:03:46.459Z,4.80
2019-06-10T07:04:46.420Z,4.50
2019-06-10T07:05:46.410Z,5.00
2019-06-10T07:06:46.336Z,4.30
2019-06-10T07:07:46.294Z,4.10
2019-06-10T07:09:00.277Z,4.70
2019-06-10T07:09:46.208Z,4.90
2019-06-10T07:10:46.168Z,5.00
2019-06-10T07:11:46.212Z,4.80
2019-06-10T07:12:46.084Z,4.50
2019-06-10T07:13:46.145Z,4.40
2019-06-10T07:14:46.001Z,3.70
2019-06-10T07:15:47.324Z,4.00
2019-06-10T07:16:46.778Z,3.80
2019-06-10T07:17:46.245Z,3.80
2019-06-10T07:18:50.094Z,3.90
2019-06-10T07:19:45.924Z,3.90
2019-06-10T07:20:45.989Z,3.80
2019-06-10T07:22:06.644Z,3.70
2019-06-10T07:22:46.586Z,3.90
2019-06-10T07:23:47.036Z,4.10
2019-06-10T07:24:47.484Z,4.10
2019-06-10T07:25:47.587Z,4.40
2019-06-10T07:26:51.133Z,3.50
2019-06-10T07:27:46.949Z,3.50
2019-06-10T07:28:47.439Z,3.90
2019-06-10T07:29:47.179Z,4.00
2019-06-10T07:30:51.053Z,3.80
2019-06-10T07:31:49.325Z,3.50
2019-06-10T07:32:47.312Z,4.00
2019-06-10T07:33:47.211Z,3.60
2019-06-10T07:34:46.937Z,3.90
2019-06-10T07:35:45.467Z,3.90
2019-06-10T07:36:45.490Z,3.30
2019-06-10T07:37:46.102Z,3.60
2019-06-10T07:38:48.690Z,3.60
2019-06-10T07:39:45.400Z,4.10
2019-06-10T07:40:45.776Z,3.30
2019-06-10T07:41:47.764Z,3.60
2019-06-10T07:42:45.437Z,3.20
2019-06-10T07:43:49.428Z,3.40
2019-06-10T07:44:45.308Z,3.60
2019-06-10T07:45:47.798Z,3.30
2019-06-10T07:46:45.725Z,3.70
2019-06-10T07:47:45.673Z,3.60
2019-06-10T07:48:47.845Z,3.30
2019-06-10T07:49:45.638Z,3.10
2019-06-10T07:50:45.832Z,3.00
2019-06-10T07:51:46.303Z,3.30
2019-06-10T07:52:46.564Z,3.30
2019-06-10T07:53:46.585Z,3.40
2019-06-10T07:54:45.341Z,3.50
2019-06-10T07:55:46.399Z,3.40
2019-06-10T07:56:49.843Z,3.60
2019-06-10T07:57:45.566Z,4.00
2019-06-10T07:58:47.488Z,3.90
2019-06-10T07:59:45.824Z,4.20
2019-06-10T08:00:48.036Z,4.10
2019-06-10T08:01:50.974Z,4.60
2019-06-10T08:02:45.892Z,3.90
2019-06-10T08:03:46.422Z,4.00
2019-06-10T08:04:45.835Z,4.70
2019-06-10T08:05:46.042Z,4.30
2019-06-10T08:06:45.700Z,4.80
2019-06-10T08:07:47.053Z,4.50
2019-06-10T08:08:45.394Z,4.50
2019-06-10T08:09:45.579Z,4.60
2019-06-10T08:10:46.066Z,4.20
2019-06-10T08:11:46.542Z,4.70
2019-06-10T08:12:44.799Z,3.90
2019-06-10T08:13:46.160Z,4.20
2019-06-10T08:14:45.300Z,4.80
2019-06-10T08:15:45.980Z,4.30
2019-06-10T08:16:46.501Z,4.60
2019-06-10T08:17:45.626Z,4.70
2019-06-10T08:19:14.240Z,4.50
2019-06-10T08:19:49.070Z,4.40
2019-06-10T08:20:45.073Z,4.00
2019-06-10T08:21:45.918Z,4.30
2019-06-10T08:22:50.971Z,4.00
2019-06-10T08:23:45.636Z,5.00
2019-06-10T08:24:45.210Z,4.90
2019-06-10T08:25:46.402Z,4.60
2019-06-10T08:26:45.272Z,4.40
2019-06-10T08:27:45.389Z,4.30
2019-06-10T08:28:46.466Z,3.90
2019-06-10T08:29:46.132Z,3.60
2019-06-10T08:30:44.722Z,3.70
2019-06-10T08:31:47.584Z,4.00
2019-06-10T08:32:45.282Z,3.40
2019-06-10T08:33:46.180Z,3.60
2019-06-10T08:34:45.941Z,3.60
2019-06-10T08:35:53.618Z,3.60
2019-06-10T08:36:47.115Z,3.60
2019-06-10T08:37:43.301Z,3.40
2019-06-10T08:38:45.045Z,4.00
2019-06-10T08:39:44.341Z,3.60
2019-06-10T08:40:45.012Z,4.10
2019-06-10T08:41:45.569Z,3.70
2019-06-10T08:42:44.131Z,3.40
2019-06-10T08:43:45.268Z,3.40
2019-06-10T08:44:43.962Z,3.70
2019-06-10T08:45:44.157Z,3.70
2019-06-10T08:46:44.990Z,3.50
2019-06-10T08:47:45.664Z,3.40
2019-06-10T08:48:45.869Z,3.50
2019-06-10T08:49:44.562Z,3.60
2019-06-10T08:50:46.547Z,4.10
2019-06-10T08:51:45.457Z,3.70
2019-06-10T08:52:56.860Z,4.00
2019-06-10T08:53:45.025Z,3.70
2019-06-10T08:54:47.215Z,3.70
2019-06-10T08:55:44.118Z,3.70
2019-06-10T08:56:46.844Z,4.00
2019-06-10T08:57:44.127Z,3.80
2019-06-10T08:58:45.738Z,4.20
2019-06-10T08:59:44.811Z,4.20
2019-06-10T09:00:45.064Z,3.90
2019-06-10T09:01:45.984Z,3.90
2019-06-10T09:02:45.197Z,3.80
2019-06-10T09:03:45.477Z,4.00
2019-06-10T09:04:45.585Z,4.10
2019-06-10T09:05:46.050Z,4.20
2019-06-10T09:06:46.317Z,3.90
2019-06-10T09:07:45.866Z,4.00
2019-06-10T09:08:45.445Z,4.30
2019-06-10T09:09:45.776Z,3.90
2019-06-10T09:10:45.621Z,4.10
2019-06-10T09:11:46.882Z,3.60
2019-06-10T09:12:45.470Z,3.50
2019-06-10T09:13:43.788Z,3.80
2019-06-10T09:14:44.023Z,3.80
2019-06-10T09:15:43.770Z,4.00
2019-06-10T09:16:44.392Z,3.60
2019-06-10T09:17:44.384Z,3.90
2019-06-10T09:18:44.463Z,3.90
2019-06-10T09:19:42.070Z,3.70
2019-06-10T09:20:44.926Z,3.60
2019-06-10T09:21:45.930Z,3.40
2019-06-10T09:22:42.243Z,3.50
2019-06-10T09:23:43.206Z,3.60
2019-06-10T09:24:42.698Z,3.60
2019-06-10T09:25:45.245Z,3.50
2019-06-10T09:26:44.480Z,3.60
2019-06-10T09:27:42.584Z,3.40
2019-06-10T09:28:45.114Z,3.40
2019-06-10T09:29:44.667Z,3.30
2019-06-10T09:30:46.858Z,3.50
2019-06-10T09:31:45.622Z,3.20
2019-06-10T09:32:42.629Z,3.20
2019-06-10T09:33:42.727Z,3.40
2019-06-10T09:34:43.056Z,3.30
2019-06-10T09:35:44.118Z,3.20
2019-06-10T09:36:42.231Z,3.30
2019-06-10T09:37:42.655Z,3.00
2019-06-10T09:38:41.785Z,3.10
2019-06-10T09:39:43.721Z,3.60
2019-06-10T09:40:41.778Z,3.30
2019-06-10T09:41:47.583Z,3.50
2019-06-10T09:42:45.586Z,3.50
2019-06-10T09:43:42.668Z,2.90
2019-06-10T09:44:45.106Z,3.80
2019-06-10T09:45:41.865Z,3.40
2019-06-10T09:46:44.071Z,3.40
2019-06-10T09:47:44.478Z,3.70
2019-06-10T09:48:44.362Z,3.40
2019-06-10T09:49:41.292Z,3.70
2019-06-10T09:50:44.603Z,3.50
2019-06-10T09:51:44.465Z,3.30
2019-06-10T09:52:41.583Z,3.60
2019-06-10T09:53:48.120Z,3.50
2019-06-10T09:54:42.935Z,3.70
2019-06-10T09:55:41.651Z,3.40
2019-06-10T09:56:42.780Z,3.90
2019-06-10T09:57:41.283Z,4.00
2019-06-10T09:58:40.795Z,3.70
2019-06-10T09:59:41.330Z,3.90
2019-06-10T10:00:41.818Z,3.50
2019-06-10T10:01:41.519Z,3.60
2019-06-10T10:02:44.951Z,3.50
2019-06-10T10:03:41.964Z,3.10
2019-06-10T10:04:40.967Z,3.80
2019-06-10T10:05:43.148Z,3.50
2019-06-10T10:06:41.450Z,3.50
2019-06-10T10:07:42.151Z,3.30
2019-06-10T10:08:41.353Z,3.50
2019-06-10T10:09:42.091Z,3.90
2019-06-10T10:10:39.701Z,4.00
2019-06-10T10:11:42.421Z,3.80
2019-06-10T10:12:39.633Z,3.80
2019-06-10T10:13:42.455Z,4.10
2019-06-10T10:14:39.578Z,3.20
2019-06-10T10:15:39.519Z,3.80
2019-06-10T10:16:39.485Z,3.70
2019-06-10T10:17:39.457Z,3.70
2019-06-10T10:18:39.454Z,3.70
2019-06-10T10:19:39.379Z,3.60
2019-06-10T10:20:39.369Z,4.10
2019-06-10T10:21:41.330Z,3.70
2019-06-10T10:22:39.280Z,3.90
2019-06-10T10:23:52.534Z,4.20
2019-06-10T10:24:39.212Z,4.00
2019-06-10T10:25:39.173Z,4.00
2019-06-10T10:26:39.165Z,3.80
2019-06-10T10:27:39.101Z,3.80
2019-06-10T10:28:39.067Z,4.10
2019-06-10T10:29:39.030Z,4.00
2019-06-10T10:30:39.032Z,4.00
2019-06-10T10:31:38.960Z,3.80
2019-06-10T10:32:38.927Z,4.10
2019-06-10T10:33:38.892Z,3.90
2019-06-10T10:34:38.856Z,3.90
2019-06-10T10:35:38.915Z,3.60
2019-06-10T10:36:38.809Z,3.70
2019-06-10T10:37:38.757Z,3.80
2019-06-10T10:38:38.797Z,3.60
2019-06-10T10:39:38.690Z,3.60
2019-06-10T10:40:38.664Z,4.00
2019-06-10T10:41:38.786Z,4.00
2019-06-10T10:42:44.810Z,3.90
2019-06-10T10:43:38.557Z,3.90
2019-06-10T10:44:38.525Z,3.60
2019-06-10T10:45:38.493Z,3.80
2019-06-10T10:46:38.458Z,3.40
2019-06-10T10:47:38.907Z,3.90
2019-06-10T10:48:38.395Z,3.90
2019-06-10T10:49:38.364Z,3.60
2019-06-10T10:50:38.328Z,3.90
2019-06-10T10:51:38.426Z,4.10
2019-06-10T10:52:38.258Z,3.90
2019-06-10T10:53:38.665Z,3.40
2019-06-10T10:54:38.190Z,3.70
2019-06-10T10:55:38.157Z,3.80
2019-06-10T10:56:38.124Z,4.40
2019-06-10T10:57:38.090Z,4.20
2019-06-10T10:58:38.060Z,3.80
2019-06-10T10:59:38.044Z,4.10
2019-06-10T11:00:37.989Z,4.40
2019-06-10T11:01:37.990Z,3.90
2019-06-10T11:02:37.917Z,3.90
2019-06-10T11:03:37.883Z,4.30
2019-06-10T11:04:37.854Z,4.20
2019-06-10T11:05:37.833Z,4.10
2019-06-10T11:06:37.785Z,4.00
2019-06-10T11:07:37.745Z,4.10
2019-06-10T11:08:37.707Z,4.30
2019-06-10T11:09:37.673Z,4.80
2019-06-10T11:10:37.640Z,4.60
2019-06-10T11:11:37.624Z,4.30
2019-06-10T11:12:37.565Z,5.20
2019-06-10T11:13:37.530Z,4.90
2019-06-10T11:14:37.495Z,5.30
2019-06-10T11:15:37.454Z,4.70
2019-06-10T11:16:37.422Z,4.90
2019-06-10T11:17:37.573Z,4.70
2019-06-10T11:18:37.350Z,4.90
2019-06-10T11:19:37.307Z,4.80
2019-06-10T11:20:37.280Z,5.20
2019-06-10T11:21:37.231Z,4.70
2019-06-10T11:22:37.196Z,5.20
2019-06-10T11:23:37.187Z,5.60
2019-06-10T11:24:41.169Z,5.60
2019-06-10T11:25:37.091Z,5.60
2019-06-10T11:26:37.046Z,5.70
2019-06-10T11:27:37.008Z,6.00
2019-06-10T11:28:37.247Z,6.30
2019-06-10T11:29:36.929Z,6.20
2019-06-10T11:30:36.890Z,6.30
2019-06-10T11:31:36.850Z,7.10
2019-06-10T11:32:36.811Z,6.10
2019-06-10T11:33:36.772Z,6.80
2019-06-10T11:34:36.758Z,6.50
2019-06-10T11:35:36.699Z,7.20
2019-06-10T11:36:36.712Z,7.00
2019-06-10T11:37:36.619Z,6.90
2019-06-10T11:38:36.578Z,7.60
2019-06-10T11:39:38.672Z,7.90
2019-06-10T11:40:36.496Z,8.60
2019-06-10T11:41:36.458Z,8.30
2019-06-10T11:42:36.446Z,9.20
2019-06-10T11:43:36.377Z,7.40
2019-06-10T11:44:36.335Z,7.20
2019-06-10T11:45:36.298Z,8.00
2019-06-10T11:46:36.257Z,8.20
2019-06-10T11:47:36.220Z,7.90
2019-06-10T11:48:36.213Z,9.00
2019-06-10T11:49:36.135Z,8.60
2019-06-10T11:50:36.094Z,9.30
2019-06-10T11:51:36.442Z,8.90
2019-06-10T11:52:36.013Z,8.50
2019-06-10T11:53:35.974Z,9.10
2019-06-10T11:54:50.917Z,9.30
2019-06-10T11:55:35.893Z,9.00
2019-06-10T11:56:35.853Z,10.40
2019-06-10T11:57:35.834Z,8.50
2019-06-10T11:58:35.770Z,7.80
2019-06-10T11:59:35.732Z,7.50
2019-06-10T12:00:35.693Z,7.50
2019-06-10T12:01:35.651Z,7.30
2019-06-10T12:02:35.648Z,7.90
2019-06-10T12:03:35.569Z,8.00
2019-06-10T12:04:35.531Z,8.70
2019-06-10T12:05:35.487Z,8.80
2019-06-10T12:06:35.445Z,9.90
2019-06-10T12:07:35.404Z,10.20
2019-06-10T12:08:35.390Z,6.90
2019-06-10T12:09:35.323Z,6.30
2019-06-10T12:10:35.284Z,6.30
2019-06-10T12:11:35.245Z,7.10
2019-06-10T12:12:35.205Z,7.60
2019-06-10T12:13:35.164Z,7.10
2019-06-10T12:14:35.142Z,5.90
2019-06-10T12:16:09.655Z,6.10
2019-06-10T12:17:46.896Z,7.00
2019-06-10T12:18:34.954Z,7.10
2019-06-10T12:19:34.917Z,8.30
2019-06-10T12:20:35.062Z,6.30
2019-06-10T12:21:34.836Z,6.90
2019-06-10T12:22:34.791Z,5.80
2019-06-10T12:23:34.760Z,5.90
2019-06-10T12:24:34.710Z,7.80
2019-06-10T12:25:39.338Z,7.80
2019-06-10T12:26:34.647Z,7.60
2019-06-10T12:27:34.595Z,7.30
2019-06-10T12:28:34.548Z,6.70
2019-06-10T12:29:35.009Z,9.00
2019-06-10T12:30:34.525Z,8.60
2019-06-10T12:31:34.778Z,7.40
2019-06-10T12:32:34.424Z,6.30
2019-06-10T12:33:34.343Z,6.00
2019-06-10T12:34:34.307Z,5.80
2019-06-10T12:35:42.296Z,6.00
2019-06-10T12:36:34.234Z,5.20
2019-06-10T12:37:34.534Z,4.90
2019-06-10T12:38:34.189Z,4.90
2019-06-10T12:39:35.040Z,6.00
2019-06-10T12:40:34.072Z,5.80
2019-06-10T12:41:34.039Z,6.40
2019-06-10T12:42:33.989Z,5.80
2019-06-10T12:43:33.951Z,5.80
2019-06-10T12:44:33.942Z,5.10
2019-06-10T12:45:33.874Z,5.90
2019-06-10T12:46:33.833Z,5.60
2019-06-10T12:47:34.115Z,5.50
2019-06-10T12:48:34.428Z,6.00
2019-06-10T12:49:33.718Z,5.80
2019-06-10T12:50:33.700Z,6.70
2019-06-10T12:51:33.637Z,6.40
2019-06-10T12:52:33.599Z,5.80
2019-06-10T12:53:33.691Z,5.60
2019-06-10T12:54:33.519Z,5.30
2019-06-10T12:55:42.309Z,5.20
2019-06-10T12:56:33.464Z,5.10
2019-06-10T12:57:33.403Z,5.40
2019-06-10T12:58:33.698Z,4.80
2019-06-10T12:59:33.321Z,4.80
2019-06-10T13:00:33.336Z,4.80
2019-06-10T13:01:33.245Z,5.20
2019-06-10T13:02:34.637Z,5.20
2019-06-10T13:03:33.939Z,5.30
2019-06-10T13:04:33.124Z,4.90
2019-06-10T13:05:33.292Z,5.00
2019-06-10T13:06:33.044Z,5.20
2019-06-10T13:07:33.009Z,5.70
2019-06-10T13:08:33.216Z,5.60
2019-06-10T13:09:33.835Z,6.30
2019-06-10T13:10:33.336Z,6.60
2019-06-10T13:11:33.414Z,7.00
2019-06-10T13:12:33.352Z,7.00
2019-06-10T13:13:32.922Z,6.80
2019-06-10T13:14:32.786Z,6.50
2019-06-10T13:15:32.954Z,6.90
2019-06-10T13:16:32.646Z,6.50
2019-06-10T13:17:32.608Z,6.80
2019-06-10T13:18:32.567Z,6.30
2019-06-10T13:19:34.340Z,6.70
2019-06-10T13:20:32.509Z,7.20
2019-06-10T13:21:32.957Z,7.90
2019-06-10T13:22:32.529Z,7.80
2019-06-10T13:23:35.130Z,7.10
2019-06-10T13:24:33.780Z,7.10
2019-06-10T13:25:33.462Z,7.20
2019-06-10T13:26:35.165Z,7.20
2019-06-10T13:27:32.204Z,6.80
2019-06-10T13:28:32.610Z,6.50
2019-06-10T13:29:33.174Z,6.60
2019-06-10T13:30:34.185Z,6.30
2019-06-10T13:31:33.672Z,6.50
2019-06-10T13:34:08.849Z,6.80
2019-06-10T13:35:06.035Z,6.70
2019-06-10T13:36:05.436Z,6.40
2019-06-10T13:37:06.788Z,7.10
2019-06-10T13:38:05.678Z,6.80
2019-06-10T13:39:06.647Z,6.70
2019-06-10T13:40:06.709Z,6.40
2019-06-10T13:41:04.257Z,6.20
2019-06-10T13:42:07.750Z,5.90
2019-06-10T13:43:03.906Z,6.60
2019-06-10T13:44:04.184Z,6.40
2019-06-10T13:45:06.375Z,6.80
2019-06-10T13:46:06.692Z,6.60
2019-06-10T13:47:07.054Z,7.60
2019-06-10T13:48:07.791Z,6.90
2019-06-10T13:49:06.905Z,7.00
2019-06-10T13:50:06.218Z,6.70
2019-06-10T13:51:08.327Z,6.40
2019-06-10T13:52:07.906Z,7.10
2019-06-10T13:53:04.864Z,6.90
2019-06-10T13:54:05.373Z,6.70
2019-06-10T13:55:04.015Z,6.40
2019-06-10T13:56:30.425Z,6.50
2019-06-10T13:57:05.003Z,6.40
2019-06-10T13:58:06.184Z,5.50
2019-06-10T13:59:04.167Z,5.90
2019-06-10T14:00:05.619Z,5.40
2019-06-10T14:01:05.305Z,5.50
2019-06-10T14:02:06.380Z,5.00
2019-06-10T14:03:06.341Z,5.20
2019-06-10T14:04:09.745Z,5.70
2019-06-10T14:05:10.279Z,4.50
2019-06-10T14:06:12.958Z,4.90
2019-06-10T14:07:07.385Z,4.90
2019-06-10T14:08:05.415Z,4.20
2019-06-10T14:09:07.685Z,4.40
2019-06-10T14:10:07.252Z,4.40
2019-06-10T14:11:06.985Z,4.50
2019-06-10T14:12:03.838Z,5.10
2019-06-10T14:13:03.971Z,5.00
2019-06-10T14:14:03.706Z,5.10
2019-06-10T14:15:04.528Z,4.70
2019-06-10T14:16:03.451Z,4.80
2019-06-10T14:17:03.807Z,4.70
2019-06-10T14:18:05.213Z,4.60
2019-06-10T14:19:05.855Z,5.20
2019-06-10T14:20:03.631Z,4.30
2019-06-10T14:21:05.024Z,4.00
2019-06-10T14:22:04.462Z,4.80
2019-06-10T14:23:02.578Z,4.60
2019-06-10T14:24:02.230Z,4.80
2019-06-10T14:25:03.871Z,4.90
2019-06-10T14:26:03.226Z,4.80
2019-06-10T14:27:03.298Z,5.90
2019-06-10T14:28:04.360Z,6.10
2019-06-10T14:29:03.027Z,6.00
2019-06-10T14:30:04.600Z,6.20
2019-06-10T14:31:05.129Z,5.90
2019-06-10T14:32:02.629Z,6.30
2019-06-10T14:33:02.889Z,6.70
2019-06-10T14:34:04.278Z,6.70
2019-06-10T14:35:01.756Z,6.80
2019-06-10T14:37:39.139Z,7.10
2019-06-10T14:38:33.430Z,6.90
2019-06-10T14:39:33.641Z,6.90
2019-06-10T14:40:33.386Z,6.50
2019-06-10T14:41:33.617Z,7.20
2019-06-10T14:42:33.266Z,6.70
2019-06-10T14:43:33.435Z,6.30
2019-06-10T14:44:33.188Z,6.20
2019-06-10T14:45:33.233Z,6.50
2019-06-10T14:46:33.108Z,6.10
2019-06-10T14:47:34.497Z,6.60
2019-06-10T14:48:33.743Z,6.70
2019-06-10T14:49:33.110Z,6.50
2019-06-10T14:50:32.945Z,7.80
2019-06-10T14:51:32.917Z,7.20
2019-06-10T14:52:32.864Z,8.40
2019-06-10T14:53:33.739Z,8.10
2019-06-10T14:54:32.783Z,6.70
2019-06-10T14:55:34.018Z,7.30
2019-06-10T14:56:33.281Z,7.40
2019-06-10T14:57:33.470Z,6.20
